Time,TemperatureF,DewpointF,PressureIn,WindDirection,WindDirectionDegrees,WindSpeedMPH,WindSpeedGustMPH,Humidity,HourlyPrecipIn,Conditions,Clouds,dailyrainin,SoftwareType,DateUTC
2013-07-27 00:02:00,52.8,44.1,30.26,NNE,23,4.9,10.9,72,0.00,,,0.00,WUHU216HW,2013-07-27 05:02:00,
2013-07-27 00:07:00,52.7,43.9,30.26,North,0,3.3,12.0,72,0.00,,,0.00,WUHU216HW,2013-07-27 05:07:00,
2013-07-27 00:12:00,52.3,43.9,30.26,North,0,5.7,12.0,73,0.00,,,0.00,WUHU216HW,2013-07-27 05:12:00,
2013-07-27 00:17:00,52.1,43.7,30.26,NNE,23,5.5,7.8,73,0.00,,,0.00,WUHU216HW,2013-07-27 05:17:00,
2013-07-27 00:22:00,51.9,43.6,30.26,North,0,3.3,5.5,73,0.00,,,0.00,WUHU216HW,2013-07-27 05:22:00,
2013-07-27 00:27:00,51.4,43.4,30.26,North,0,4.1,5.5,74,0.00,,,0.00,WUHU216HW,2013-07-27 05:27:00,
2013-07-27 00:32:00,51.2,43.2,30.27,North,0,5.0,5.0,74,0.00,,,0.00,WUHU216HW,2013-07-27 05:32:00,
2013-07-27 00:37:00,50.9,43.2,30.26,North,0,3.3,5.0,75,0.00,,,0.00,WUHU216HW,2013-07-27 05:37:00,
2013-07-27 00:42:00,50.7,43.0,30.26,North,0,6.9,7.3,75,0.00,,,0.00,WUHU216HW,2013-07-27 05:42:00,
2013-07-27 00:47:00,50.7,43.4,30.26,North,0,4.1,7.3,76,0.00,,,0.00,WUHU216HW,2013-07-27 05:47:00,
2013-07-27 00:52:00,50.7,43.4,30.26,North,0,1.4,6.6,76,0.00,,,0.00,WUHU216HW,2013-07-27 05:52:00,
2013-07-27 00:57:00,50.5,43.2,30.26,North,0,3.8,5.3,76,0.00,,,0.00,WUHU216HW,2013-07-27 05:57:00,
2013-07-27 01:02:00,50.5,43.2,30.26,North,0,2.1,5.3,76,0.00,,,0.00,WUHU216HW,2013-07-27 06:02:00,
2013-07-27 01:07:00,50.3,43.0,30.26,North,0,4.4,5.5,76,0.00,,,0.00,WUHU216HW,2013-07-27 06:07:00,
2013-07-27 01:12:00,50.0,42.6,30.26,NNE,23,8.4,8.4,76,0.00,,,0.00,WUHU216HW,2013-07-27 06:12:00,
2013-07-27 01:17:00,49.8,42.5,30.26,North,0,6.1,8.4,76,0.00,,,0.00,WUHU216HW,2013-07-27 06:17:00,
2013-07-27 01:22:00,49.8,42.8,30.26,North,0,4.1,8.4,77,0.00,,,0.00,WUHU216HW,2013-07-27 06:22:00,
2013-07-27 01:27:00,49.8,42.8,30.27,North,0,4.1,6.1,77,0.00,,,0.00,WUHU216HW,2013-07-27 06:27:00,
2013-07-27 01:32:00,49.6,42.6,30.27,North,0,3.3,4.1,77,0.00,,,0.00,WUHU216HW,2013-07-27 06:32:00,
2013-07-27 01:37:00,49.2,42.3,30.27,North,0,2.8,4.1,77,0.00,,,0.00,WUHU216HW,2013-07-27 06:37:00,
2013-07-27 01:42:00,48.9,42.2,30.27,North,0,6.4,6.4,78,0.00,,,0.00,WUHU216HW,2013-07-27 06:42:00,
2013-07-27 01:47:00,48.7,42.1,30.27,North,0,5.3,6.4,78,0.00,,,0.00,WUHU216HW,2013-07-27 06:47:00,
2013-07-27 01:52:00,48.7,42.1,30.26,North,0,5.5,6.4,78,0.00,,,0.00,WUHU216HW,2013-07-27 06:52:00,
2013-07-27 01:57:00,48.5,42.2,30.26,North,0,2.5,5.5,79,0.00,,,0.00,WUHU216HW,2013-07-27 06:57:00,
2013-07-27 02:02:00,48.3,42.0,30.26,North,0,7.8,7.8,79,0.00,,,0.00,WUHU216HW,2013-07-27 07:02:00,
2013-07-27 02:07:00,48.3,42.4,30.27,NNE,23,6.1,7.8,80,0.00,,,0.00,WUHU216HW,2013-07-27 07:07:00,
2013-07-27 02:12:00,48.7,42.9,30.27,North,0,8.4,8.4,81,0.00,,,0.00,WUHU216HW,2013-07-27 07:12:00,
2013-07-27 02:17:00,48.9,43.2,30.27,North,0,3.0,8.4,81,0.00,,,0.00,WUHU216HW,2013-07-27 07:17:00,
2013-07-27 02:22:00,48.9,43.2,30.27,NNE,23,6.6,8.4,81,0.00,,,0.00,WUHU216HW,2013-07-27 07:22:00,
2013-07-27 02:27:00,49.1,43.4,30.27,NNE,23,8.0,8.0,81,0.00,,,0.00,WUHU216HW,2013-07-27 07:27:00,
2013-07-27 02:32:00,49.2,43.9,30.27,North,0,6.1,8.0,82,0.00,,,0.00,WUHU216HW,2013-07-27 07:32:00,
2013-07-27 02:37:00,49.2,43.6,30.27,North,0,5.5,8.0,81,0.00,,,0.00,WUHU216HW,2013-07-27 07:37:00,
2013-07-27 02:42:00,49.1,43.4,30.27,NNW,338,2.8,6.6,81,0.00,,,0.00,WUHU216HW,2013-07-27 07:42:00,
2013-07-27 02:47:00,48.9,43.2,30.27,North,0,5.0,5.0,81,0.00,,,0.00,WUHU216HW,2013-07-27 07:47:00,
2013-07-27 02:52:00,48.9,43.6,30.27,NNE,23,1.9,5.0,82,0.00,,,0.00,WUHU216HW,2013-07-27 07:52:00,
2013-07-27 02:57:00,48.9,43.6,30.27,North,0,5.0,5.0,82,0.00,,,0.00,WUHU216HW,2013-07-27 07:57:00,
2013-07-27 03:02:00,49.1,43.7,30.27,NNE,23,6.8,7.5,82,0.00,,,0.00,WUHU216HW,2013-07-27 08:02:00,
2013-07-27 03:07:00,48.9,43.6,30.27,NNE,23,6.6,7.5,82,0.00,,,0.00,WUHU216HW,2013-07-27 08:07:00,
2013-07-27 03:12:00,48.7,43.6,30.27,North,0,7.1,8.6,82,0.00,,,0.00,WUHU216HW,2013-07-27 08:12:00,
2013-07-27 03:17:00,48.7,43.7,30.27,North,0,4.1,8.6,83,0.00,,,0.00,WUHU216HW,2013-07-27 08:17:00,
2013-07-27 03:22:00,48.7,43.7,30.27,North,0,5.8,5.8,83,0.00,,,0.00,WUHU216HW,2013-07-27 08:22:00,
2013-07-27 03:27:00,48.3,43.7,30.27,North,0,7.5,7.5,84,0.00,,,0.00,WUHU216HW,2013-07-27 08:27:00,
2013-07-27 03:32:00,48.2,43.5,30.27,North,0,3.9,7.5,84,0.00,,,0.00,WUHU216HW,2013-07-27 08:32:00,
2013-07-27 03:37:00,48.0,43.3,30.27,North,0,0.0,7.5,84,0.00,,,0.00,WUHU216HW,2013-07-27 08:37:00,
2013-07-27 03:42:00,48.0,43.3,30.27,North,0,3.6,5.5,84,0.00,,,0.00,WUHU216HW,2013-07-27 08:42:00,
2013-07-27 03:47:00,47.8,43.2,30.27,North,0,2.9,5.5,84,0.00,,,0.00,WUHU216HW,2013-07-27 08:47:00,
2013-07-27 03:52:00,47.4,42.8,30.27,North,0,0.0,5.0,84,0.00,,,0.00,WUHU216HW,2013-07-27 08:52:00,
2013-07-27 03:57:00,46.9,42.0,30.27,North,0,3.0,3.0,83,0.00,,,0.00,WUHU216HW,2013-07-27 08:57:00,
2013-07-27 04:02:00,46.7,42.1,30.27,North,0,5.8,5.8,84,0.00,,,0.00,WUHU216HW,2013-07-27 09:02:00,
2013-07-27 04:07:00,46.7,42.5,30.27,NNE,23,0.0,5.8,85,0.00,,,0.00,WUHU216HW,2013-07-27 09:07:00,
2013-07-27 04:12:00,46.7,42.5,30.27,North,0,6.1,6.1,85,0.00,,,0.00,WUHU216HW,2013-07-27 09:12:00,
2013-07-27 04:17:00,46.7,42.5,30.27,North,0,8.4,8.4,85,0.00,,,0.00,WUHU216HW,2013-07-27 09:17:00,
2013-07-27 04:22:00,46.5,42.3,30.27,North,0,0.8,8.4,85,0.00,,,0.00,WUHU216HW,2013-07-27 09:22:00,
2013-07-27 04:27:00,46.5,42.6,30.27,North,0,7.5,7.5,86,0.00,,,0.00,WUHU216HW,2013-07-27 09:27:00,
2013-07-27 04:32:00,46.2,42.2,30.27,North,0,7.5,7.5,86,0.00,,,0.00,WUHU216HW,2013-07-27 09:32:00,
2013-07-27 04:37:00,46.2,42.2,30.27,North,0,3.3,7.5,86,0.00,,,0.00,WUHU216HW,2013-07-27 09:37:00,
2013-07-27 04:42:00,46.0,42.1,30.27,North,0,4.8,4.8,86,0.00,,,0.00,WUHU216HW,2013-07-27 09:42:00,
2013-07-27 04:47:00,46.0,42.1,30.27,North,0,0.0,4.8,86,0.00,,,0.00,WUHU216HW,2013-07-27 09:47:00,
2013-07-27 04:52:00,45.6,41.4,30.27,North,0,0.0,4.8,85,0.00,,,0.00,WUHU216HW,2013-07-27 09:52:00,
2013-07-27 04:57:00,45.3,41.0,30.27,NNW,338,0.0,1.9,85,0.00,,,0.00,WUHU216HW,2013-07-27 09:57:00,
2013-07-27 05:02:00,45.1,40.9,30.27,NNW,338,0.0,0.0,85,0.00,,,0.00,WUHU216HW,2013-07-27 10:02:00,
2013-07-27 05:07:00,44.7,40.5,30.27,North,0,0.0,0.0,85,0.00,,,0.00,WUHU216HW,2013-07-27 10:07:00,
2013-07-27 05:12:00,44.4,40.1,30.27,North,0,0.0,0.0,85,0.00,,,0.00,WUHU216HW,2013-07-27 10:12:00,
2013-07-27 05:17:00,44.4,40.4,30.27,NNW,338,0.0,0.0,86,0.00,,,0.00,WUHU216HW,2013-07-27 10:17:00,
2013-07-27 05:22:00,44.4,40.4,30.27,North,0,1.0,1.0,86,0.00,,,0.00,WUHU216HW,2013-07-27 10:22:00,
2013-07-27 05:27:00,44.4,40.4,30.27,North,0,0.0,2.8,86,0.00,,,0.00,WUHU216HW,2013-07-27 10:27:00,
2013-07-27 05:32:00,44.4,40.4,30.27,North,0,0.0,2.8,86,0.00,,,0.00,WUHU216HW,2013-07-27 10:32:00,
2013-07-27 05:37:00,44.0,40.4,30.27,North,0,0.0,0.0,87,0.00,,,0.00,WUHU216HW,2013-07-27 10:37:00,
2013-07-27 05:42:00,44.0,39.9,30.27,North,0,0.0,0.0,87,0.00,,,0.00,WUHU216HW,2013-07-27 10:42:00,
2013-07-27 05:47:00,43.8,40.2,30.27,North,0,0.0,0.0,87,0.00,,,0.00,WUHU216HW,2013-07-27 10:47:00,
2013-07-27 05:52:00,43.8,40.2,30.27,NNE,23,0.0,0.0,87,0.00,,,0.00,WUHU216HW,2013-07-27 10:52:00,
2013-07-27 05:57:00,43.8,40.2,30.27,North,0,0.0,0.0,87,0.00,,,0.00,WUHU216HW,2013-07-27 10:57:00,
2013-07-27 06:02:00,44.0,40.4,30.27,North,0,0.0,0.0,87,0.00,,,0.00,WUHU216HW,2013-07-27 11:02:00,
2013-07-27 06:07:00,44.0,40.4,30.28,North,0,1.0,1.0,87,0.00,,,0.00,WUHU216HW,2013-07-27 11:07:00,
2013-07-27 06:12:00,44.2,40.6,30.28,North,0,0.0,3.6,87,0.00,,,0.00,WUHU216HW,2013-07-27 11:12:00,
2013-07-27 06:17:00,44.0,40.4,30.27,North,0,0.0,3.9,87,0.00,,,0.00,WUHU216HW,2013-07-27 11:17:00,
2013-07-27 06:22:00,44.0,40.4,30.27,North,0,0.0,3.9,87,0.00,,,0.00,WUHU216HW,2013-07-27 11:22:00,
2013-07-27 06:27:00,44.0,40.4,30.27,North,0,0.0,1.9,87,0.00,,,0.00,WUHU216HW,2013-07-27 11:27:00,
2013-07-27 06:32:00,44.0,40.4,30.27,NNW,338,0.0,0.0,87,0.00,,,0.00,WUHU216HW,2013-07-27 11:32:00,
2013-07-27 06:37:00,44.2,40.6,30.27,North,0,5.0,5.0,87,0.00,,,0.00,WUHU216HW,2013-07-27 11:37:00,
2013-07-27 06:42:00,44.4,40.8,30.27,North,0,3.9,5.0,87,0.00,,,0.00,WUHU216HW,2013-07-27 11:42:00,
2013-07-27 06:47:00,44.6,40.9,30.28,North,0,3.0,5.0,87,0.00,,,0.00,WUHU216HW,2013-07-27 11:47:00,
2013-07-27 06:52:00,44.7,41.1,30.27,North,0,0.0,4.1,87,0.00,,,0.00,WUHU216HW,2013-07-27 11:52:00,
2013-07-27 06:57:00,44.7,41.1,30.28,North,0,1.0,1.4,87,0.00,,,0.00,WUHU216HW,2013-07-27 11:57:00,
2013-07-27 07:02:00,44.7,41.1,30.27,North,0,0.0,1.4,87,0.00,,,0.00,WUHU216HW,2013-07-27 12:02:00,
2013-07-27 07:07:00,44.9,41.3,30.27,North,0,0.0,0.0,87,0.00,,,0.00,WUHU216HW,2013-07-27 12:07:00,
2013-07-27 07:12:00,45.1,41.5,30.27,North,0,0.0,0.0,87,0.00,,,0.00,WUHU216HW,2013-07-27 12:12:00,
2013-07-27 07:17:00,45.3,41.7,30.28,North,0,4.8,4.8,87,0.00,,,0.00,WUHU216HW,2013-07-27 12:17:00,
2013-07-27 07:22:00,45.6,41.7,30.27,North,0,1.4,4.8,86,0.00,,,0.00,WUHU216HW,2013-07-27 12:22:00,
2013-07-27 07:27:00,46.0,42.1,30.27,North,0,5.3,5.3,86,0.00,,,0.00,WUHU216HW,2013-07-27 12:27:00,
2013-07-27 07:32:00,46.2,42.2,30.27,NNW,338,0.0,6.9,86,0.00,,,0.00,WUHU216HW,2013-07-27 12:32:00,
2013-07-27 07:37:00,46.7,42.5,30.27,North,0,2.5,6.9,85,0.00,,,0.00,WUHU216HW,2013-07-27 12:37:00,
2013-07-27 07:42:00,47.1,42.8,30.27,North,0,0.0,6.4,85,0.00,,,0.00,WUHU216HW,2013-07-27 12:42:00,
2013-07-27 07:47:00,47.6,43.0,30.28,North,0,3.3,6.4,84,0.00,,,0.00,WUHU216HW,2013-07-27 12:47:00,
2013-07-27 07:52:00,48.0,43.3,30.28,North,0,3.2,5.5,84,0.00,,,0.00,WUHU216HW,2013-07-27 12:52:00,
2013-07-27 07:57:00,48.7,43.4,30.28,North,0,0.8,3.6,82,0.00,,,0.00,WUHU216HW,2013-07-27 12:57:00,
2013-07-27 08:02:00,49.1,43.4,30.28,North,0,3.0,8.0,81,0.00,,,0.00,WUHU216HW,2013-07-27 13:02:00,
2013-07-27 08:07:00,49.8,43.5,30.27,North,0,6.4,8.0,79,0.00,,,0.00,WUHU216HW,2013-07-27 13:07:00,
2013-07-27 08:12:00,50.7,43.7,30.27,North,0,7.3,7.3,77,0.00,,,0.00,WUHU216HW,2013-07-27 13:12:00,
2013-07-27 08:17:00,51.8,44.1,30.27,North,0,7.8,7.8,75,0.00,,,0.00,WUHU216HW,2013-07-27 13:17:00,
2013-07-27 08:22:00,53.2,44.4,30.27,NNE,23,12.0,12.0,73,0.00,,,0.00,WUHU216HW,2013-07-27 13:22:00,
2013-07-27 08:27:00,53.7,43.8,30.27,North,0,8.0,12.0,69,0.00,,,0.00,WUHU216HW,2013-07-27 13:27:00,
2013-07-27 08:32:00,55.4,45.0,30.27,North,0,8.6,12.0,68,0.00,,,0.00,WUHU216HW,2013-07-27 13:32:00,
2013-07-27 08:37:00,57.3,45.2,30.27,North,0,14.8,14.8,64,0.00,,,0.00,WUHU216HW,2013-07-27 13:37:00,
2013-07-27 08:42:00,59.7,45.3,30.27,NNW,330,13.4,14.8,59,0.00,,,0.00,WUHU216HW,2013-07-27 13:42:00,
2013-07-27 08:47:00,60.9,46.1,30.27,NNE,23,5.5,17.3,58,0.00,,,0.00,WUHU216HW,2013-07-27 13:47:00,
2013-07-27 08:52:00,61.8,46.4,30.27,NNW,338,10.0,17.3,57,0.00,,,0.00,WUHU216HW,2013-07-27 13:52:00,
2013-07-27 08:57:00,62.6,46.6,30.27,NE,45,14.5,14.5,56,0.00,,,0.00,WUHU216HW,2013-07-27 13:57:00,
2013-07-27 09:02:00,63.1,47.1,30.27,NNW,338,11.4,14.5,56,0.00,,,0.00,WUHU216HW,2013-07-27 14:02:00,
2013-07-27 09:07:00,64.0,47.4,30.27,North,0,6.6,14.5,55,0.00,,,0.00,WUHU216HW,2013-07-27 14:07:00,
2013-07-27 09:12:00,64.2,47.5,30.26,NNE,23,10.6,13.4,55,0.00,,,0.00,WUHU216HW,2013-07-27 14:12:00,
2013-07-27 09:17:00,64.5,47.9,30.26,North,0,10.3,13.6,55,0.00,,,0.00,WUHU216HW,2013-07-27 14:17:00,
2013-07-27 09:22:00,64.5,47.9,30.27,North,0,8.6,15.9,55,0.00,,,0.00,WUHU216HW,2013-07-27 14:22:00,
2013-07-27 09:28:00,65.3,48.1,30.27,North,0,19.8,19.8,54,0.00,,,0.00,WUHU216HW,2013-07-27 14:28:00,
2013-07-27 09:33:00,65.3,48.1,30.26,NNE,23,18.4,22.9,54,0.00,,,0.00,WUHU216HW,2013-07-27 14:33:00,
2013-07-27 09:38:00,66.0,48.8,30.26,North,0,10.9,22.9,54,0.00,,,0.00,WUHU216HW,2013-07-27 14:38:00,
2013-07-27 09:43:00,66.3,49.2,30.26,North,0,10.0,18.4,54,0.00,,,0.00,WUHU216HW,2013-07-27 14:43:00,
2013-07-27 09:48:00,66.9,49.2,30.26,NNE,23,10.0,10.9,53,0.00,,,0.00,WUHU216HW,2013-07-27 14:48:00,
2013-07-27 09:53:00,66.9,48.2,30.26,NNE,23,22.9,22.9,51,0.00,,,0.00,WUHU216HW,2013-07-27 14:53:00,
2013-07-27 09:58:00,66.7,47.6,30.25,North,0,13.6,22.9,50,0.00,,,0.00,WUHU216HW,2013-07-27 14:58:00,
2013-07-27 10:03:00,66.9,48.7,30.25,North,0,16.8,22.9,52,0.00,,,0.00,WUHU216HW,2013-07-27 15:03:00,
2013-07-27 10:08:00,68.0,48.7,30.25,NNE,23,20.4,20.4,51,0.00,,,0.00,WUHU216HW,2013-07-27 15:08:00,
2013-07-27 10:13:00,68.0,48.7,30.25,North,0,14.6,20.4,50,0.00,,,0.00,WUHU216HW,2013-07-27 15:13:00,
2013-07-27 10:18:00,68.1,48.3,30.25,North,0,6.6,22.3,49,0.00,,,0.00,WUHU216HW,2013-07-27 15:18:00,
2013-07-27 10:23:00,67.6,48.4,30.25,North,0,18.7,22.3,50,0.00,,,0.00,WUHU216HW,2013-07-27 15:23:00,
2013-07-27 10:28:00,67.6,48.9,30.25,North,0,15.0,19.5,51,0.00,,,0.00,WUHU216HW,2013-07-27 15:28:00,
2013-07-27 10:33:00,68.3,48.4,30.25,NNE,23,12.5,18.1,49,0.00,,,0.00,WUHU216HW,2013-07-27 15:33:00,
2013-07-27 10:38:00,68.1,47.1,30.25,North,0,14.2,15.6,47,0.00,,,0.00,WUHU216HW,2013-07-27 15:38:00,
2013-07-27 10:43:00,67.6,48.9,30.24,North,350,13.4,15.6,51,0.00,,,0.00,WUHU216HW,2013-07-27 15:43:00,
2013-07-27 10:48:00,66.9,45.9,30.24,NNE,23,10.0,16.4,47,0.00,,,0.00,WUHU216HW,2013-07-27 15:48:00,
2013-07-27 10:53:00,66.7,48.5,30.24,NNE,23,14.8,16.4,52,0.00,,,0.00,WUHU216HW,2013-07-27 15:53:00,
2013-07-27 10:58:00,67.1,47.9,30.24,NNW,338,15.0,15.0,50,0.00,,,0.00,WUHU216HW,2013-07-27 15:58:00,
2013-07-27 11:03:00,67.8,47.3,30.24,NNW,338,14.3,15.0,48,0.00,,,0.00,WUHU216HW,2013-07-27 16:03:00,
2013-07-27 11:08:00,67.6,46.0,30.24,North,355,19.1,22.0,46,0.00,,,0.00,WUHU216HW,2013-07-27 16:08:00,
2013-07-27 11:13:00,67.6,46.6,30.24,North,0,13.9,22.0,47,0.00,,,0.00,WUHU216HW,2013-07-27 16:13:00,
2013-07-27 11:18:00,66.0,45.7,30.24,North,0,10.0,16.1,48,0.00,,,0.00,WUHU216HW,2013-07-27 16:18:00,
2013-07-27 11:23:00,67.8,46.2,30.24,NNE,23,15.0,18.1,46,0.00,,,0.00,WUHU216HW,2013-07-27 16:23:00,
2013-07-27 11:28:00,69.4,47.6,30.24,North,0,6.6,18.1,46,0.00,,,0.00,WUHU216HW,2013-07-27 16:28:00,
2013-07-27 11:33:00,68.5,46.2,30.24,North,0,9.1,22.3,45,0.00,,,0.00,WUHU216HW,2013-07-27 16:33:00,
2013-07-27 11:38:00,68.9,46.5,30.23,NNE,23,24.0,24.0,45,0.00,,,0.00,WUHU216HW,2013-07-27 16:38:00,
2013-07-27 11:43:00,68.3,46.0,30.23,NNE,12,9.9,24.0,45,0.00,,,0.00,WUHU216HW,2013-07-27 16:43:00,
2013-07-27 11:48:00,70.1,48.3,30.23,NNE,23,6.4,24.0,46,0.00,,,0.00,WUHU216HW,2013-07-27 16:48:00,
2013-07-27 11:53:00,69.9,47.5,30.23,NNE,23,12.0,25.1,45,0.00,,,0.00,WUHU216HW,2013-07-27 16:53:00,
2013-07-27 11:58:00,69.6,46.0,30.23,NNE,13,16.0,25.1,43,0.00,,,0.00,WUHU216HW,2013-07-27 16:58:00,
2013-07-27 12:03:00,67.1,44.9,30.22,North,0,22.0,22.0,45,0.00,,,0.00,WUHU216HW,2013-07-27 17:03:00,
2013-07-27 12:08:00,65.8,45.5,30.22,NNE,16,14.6,22.0,48,0.00,,,0.00,WUHU216HW,2013-07-27 17:08:00,
2013-07-27 12:13:00,67.6,46.6,30.22,North,0,12.3,21.3,47,0.00,,,0.00,WUHU216HW,2013-07-27 17:13:00,
2013-07-27 12:18:00,66.9,45.9,30.22,NNE,23,14.8,16.8,47,0.00,,,0.00,WUHU216HW,2013-07-27 17:18:00,
2013-07-27 12:23:00,67.1,46.1,30.23,NNW,338,8.0,16.8,47,0.00,,,0.00,WUHU216HW,2013-07-27 17:23:00,
2013-07-27 12:28:00,66.5,46.2,30.23,North,0,15.6,15.6,48,0.00,,,0.00,WUHU216HW,2013-07-27 17:28:00,
2013-07-27 12:33:00,66.5,45.6,30.22,North,0,9.1,15.6,47,0.00,,,0.00,WUHU216HW,2013-07-27 17:33:00,
2013-07-27 12:38:00,66.5,45.6,30.22,NNW,329,7.2,12.0,47,0.00,,,0.00,WUHU216HW,2013-07-27 17:38:00,
2013-07-27 12:43:00,66.2,45.9,30.22,North,0,10.9,13.6,48,0.00,,,0.00,WUHU216HW,2013-07-27 17:43:00,
2013-07-27 12:48:00,68.7,46.4,30.22,North,349,12.4,15.0,45,0.00,,,0.00,WUHU216HW,2013-07-27 17:48:00,
2013-07-27 12:53:00,67.2,46.3,30.22,North,0,15.4,15.4,47,0.00,,,0.00,WUHU216HW,2013-07-27 17:53:00,
2013-07-27 12:58:00,66.0,45.1,30.22,NNE,23,6.1,17.9,47,0.00,,,0.00,WUHU216HW,2013-07-27 17:58:00,
2013-07-27 13:03:00,66.7,46.4,30.21,North,0,11.1,17.9,48,0.00,,,0.00,WUHU216HW,2013-07-27 18:03:00,
2013-07-27 13:08:00,68.9,47.1,30.21,North,0,17.0,17.0,46,0.00,,,0.00,WUHU216HW,2013-07-27 18:08:00,
2013-07-27 13:13:00,67.8,46.2,30.21,North,0,16.8,17.0,46,0.00,,,0.00,WUHU216HW,2013-07-27 18:13:00,
2013-07-27 13:18:00,68.7,48.2,30.20,North,7,9.7,16.8,48,0.00,,,0.00,WUHU216HW,2013-07-27 18:18:00,
2013-07-27 13:23:00,69.4,47.0,30.20,NNE,23,7.3,14.3,45,0.00,,,0.00,WUHU216HW,2013-07-27 18:23:00,
2013-07-27 13:28:00,67.6,45.4,30.20,North,0,8.4,11.1,45,0.00,,,0.00,WUHU216HW,2013-07-27 18:28:00,
2013-07-27 13:33:00,66.7,45.8,30.20,North,0,7.2,8.4,47,0.00,,,0.00,WUHU216HW,2013-07-27 18:33:00,
2013-07-27 13:38:00,67.8,46.7,30.20,NNE,23,8.4,8.4,47,0.00,,,0.00,WUHU216HW,2013-07-27 18:38:00,
2013-07-27 13:43:00,67.6,46.6,30.20,NNE,23,13.4,13.4,47,0.00,,,0.00,WUHU216HW,2013-07-27 18:43:00,
2013-07-27 13:48:00,66.7,45.8,30.20,North,11,10.1,16.1,47,0.00,,,0.00,WUHU216HW,2013-07-27 18:48:00,
2013-07-27 13:53:00,67.6,47.8,30.20,North,0,11.4,16.1,49,0.00,,,0.00,WUHU216HW,2013-07-27 18:53:00,
2013-07-27 13:58:00,67.6,46.6,30.20,NNW,338,8.0,11.4,47,0.00,,,0.00,WUHU216HW,2013-07-27 18:58:00,
2013-07-27 14:03:00,66.7,46.4,30.19,NW,315,16.1,16.1,48,0.00,,,0.00,WUHU216HW,2013-07-27 19:03:00,
2013-07-27 14:08:00,66.7,46.4,30.19,NNE,23,6.9,16.1,48,0.00,,,0.00,WUHU216HW,2013-07-27 19:08:00,
2013-07-27 14:13:00,67.1,46.7,30.19,North,0,10.0,16.1,48,0.00,,,0.00,WUHU216HW,2013-07-27 19:13:00,
2013-07-27 14:18:00,67.2,46.9,30.19,North,0,14.5,14.5,48,0.00,,,0.00,WUHU216HW,2013-07-27 19:18:00,
2013-07-27 14:23:00,68.7,47.0,30.19,North,0,6.9,14.5,46,0.00,,,0.00,WUHU216HW,2013-07-27 19:23:00,
2013-07-27 14:28:00,69.4,47.0,30.19,NNE,23,15.0,15.0,45,0.00,,,0.00,WUHU216HW,2013-07-27 19:28:00,
2013-07-27 14:33:00,69.0,49.1,30.19,NNE,23,9.5,15.0,49,0.00,,,0.00,WUHU216HW,2013-07-27 19:33:00,
2013-07-27 14:38:00,70.3,47.2,30.19,North,0,10.9,14.8,44,0.00,,,0.00,WUHU216HW,2013-07-27 19:38:00,
2013-07-27 14:43:00,70.8,48.3,30.18,NW,315,9.5,10.9,45,0.00,,,0.00,WUHU216HW,2013-07-27 19:43:00,
2013-07-27 14:48:00,71.2,47.4,30.18,NW,315,10.7,11.4,43,0.00,,,0.00,WUHU216HW,2013-07-27 19:48:00,
2013-07-27 14:53:00,70.5,47.4,30.18,North,0,12.0,12.0,44,0.00,,,0.00,WUHU216HW,2013-07-27 19:53:00,
2013-07-27 14:58:00,68.5,46.2,30.18,NNW,338,7.5,12.0,45,0.00,,,0.00,WUHU216HW,2013-07-27 19:58:00,
2013-07-27 15:03:00,67.8,46.2,30.17,North,0,13.4,15.4,46,0.00,,,0.00,WUHU216HW,2013-07-27 20:03:00,
2013-07-27 15:08:00,67.1,46.1,30.18,North,0,14.3,15.4,47,0.00,,,0.00,WUHU216HW,2013-07-27 20:08:00,
2013-07-27 15:13:00,66.7,47.0,30.17,North,0,8.6,14.3,49,0.00,,,0.00,WUHU216HW,2013-07-27 20:13:00,
2013-07-27 15:18:00,67.8,46.7,30.18,NNE,23,10.7,13.9,47,0.00,,,0.00,WUHU216HW,2013-07-27 20:18:00,
2013-07-27 15:23:00,67.8,46.7,30.17,NE,45,12.5,13.9,47,0.00,,,0.00,WUHU216HW,2013-07-27 20:23:00,
2013-07-27 15:28:00,67.6,46.6,30.17,NNE,23,3.3,12.5,47,0.00,,,0.00,WUHU216HW,2013-07-27 20:28:00,
2013-07-27 15:33:00,68.1,46.5,30.16,North,2,9.9,12.5,46,0.00,,,0.00,WUHU216HW,2013-07-27 20:33:00,
2013-07-27 15:38:00,68.1,46.0,30.16,North,0,12.8,12.8,47,0.00,,,0.00,WUHU216HW,2013-07-27 20:38:00,
2013-07-27 15:43:00,67.6,46.6,30.16,NNE,23,8.9,12.8,47,0.00,,,0.00,WUHU216HW,2013-07-27 20:43:00,
2013-07-27 15:48:00,67.8,46.7,30.16,NNE,23,16.8,16.8,47,0.00,,,0.00,WUHU216HW,2013-07-27 20:48:00,
2013-07-27 15:53:00,67.4,45.8,30.16,NNW,338,7.5,16.8,46,0.00,,,0.00,WUHU216HW,2013-07-27 20:53:00,
2013-07-27 15:58:00,67.8,46.7,30.16,NW,315,10.3,16.8,47,0.00,,,0.00,WUHU216HW,2013-07-27 20:58:00,
2013-07-27 16:03:00,67.8,45.6,30.16,NNE,23,16.8,16.8,45,0.00,,,0.00,WUHU216HW,2013-07-27 21:03:00,
2013-07-27 16:08:00,67.4,46.4,30.16,NW,315,9.8,16.8,47,0.00,,,0.00,WUHU216HW,2013-07-27 21:08:00,
2013-07-27 16:13:00,67.8,46.2,30.16,North,0,12.0,16.8,46,0.00,,,0.00,WUHU216HW,2013-07-27 21:13:00,
2013-07-27 16:18:00,68.5,46.2,30.16,NNW,338,10.3,12.0,45,0.00,,,0.00,WUHU216HW,2013-07-27 21:18:00,
2013-07-27 16:23:00,69.4,48.2,30.16,NNE,23,5.8,13.9,47,0.00,,,0.00,WUHU216HW,2013-07-27 21:23:00,
2013-07-27 16:28:00,69.6,47.8,30.16,North,0,10.0,19.3,46,0.00,,,0.00,WUHU216HW,2013-07-27 21:28:00,
2013-07-27 16:33:00,69.0,46.7,30.16,North,0,6.5,19.3,45,0.00,,,0.00,WUHU216HW,2013-07-27 21:33:00,
2013-07-27 16:38:00,68.9,47.0,30.16,NNW,338,12.8,12.8,46,0.00,,,0.00,WUHU216HW,2013-07-27 21:38:00,
2013-07-27 16:43:00,68.7,46.4,30.16,NNE,23,16.4,16.4,47,0.00,,,0.00,WUHU216HW,2013-07-27 21:43:00,
2013-07-27 16:48:00,68.3,46.0,30.16,NNW,338,15.0,16.4,45,0.00,,,0.00,WUHU216HW,2013-07-27 21:48:00,
2013-07-27 16:53:00,68.3,46.0,30.16,North,0,8.9,16.4,45,0.00,,,0.00,WUHU216HW,2013-07-27 21:53:00,
2013-07-27 16:58:00,68.5,46.0,30.16,North,350,11.4,18.6,46,0.00,,,0.00,WUHU216HW,2013-07-27 21:58:00,
2013-07-27 17:03:00,69.2,46.9,30.15,NNE,23,3.3,18.6,45,0.00,,,0.00,WUHU216HW,2013-07-27 22:03:00,
2013-07-27 17:08:00,69.6,47.2,30.15,North,0,6.4,12.3,45,0.00,,,0.00,WUHU216HW,2013-07-27 22:08:00,
2013-07-27 17:13:00,69.6,46.6,30.15,North,6,13.6,19.5,44,0.00,,,0.00,WUHU216HW,2013-07-27 22:13:00,
2013-07-27 17:18:00,69.6,46.6,30.15,North,0,9.7,19.5,44,0.00,,,0.00,WUHU216HW,2013-07-27 22:18:00,
2013-07-27 17:23:00,69.8,47.3,30.16,NNW,338,9.1,12.5,45,0.00,,,0.00,WUHU216HW,2013-07-27 22:23:00,
2013-07-27 17:28:00,69.9,46.9,30.15,North,8,12.3,16.1,45,0.00,,,0.00,WUHU216HW,2013-07-27 22:28:00,
2013-07-27 17:33:00,69.9,46.9,30.16,North,0,12.5,16.1,44,0.00,,,0.00,WUHU216HW,2013-07-27 22:33:00,
2013-07-27 17:38:00,70.1,47.1,30.16,North,0,9.8,12.5,44,0.00,,,0.00,WUHU216HW,2013-07-27 22:38:00,
2013-07-27 17:43:00,69.6,46.9,30.15,North,0,12.6,17.3,44,0.00,,,0.00,WUHU216HW,2013-07-27 22:43:00,
2013-07-27 17:48:00,67.8,45.6,30.16,NNE,23,16.4,17.3,45,0.00,,,0.00,WUHU216HW,2013-07-27 22:48:00,
2013-07-27 17:53:00,68.1,45.9,30.15,North,0,15.0,16.4,45,0.00,,,0.00,WUHU216HW,2013-07-27 22:53:00,
2013-07-27 17:58:00,68.7,46.7,30.15,NNW,340,14.2,16.4,45,0.00,,,0.00,WUHU216HW,2013-07-27 22:58:00,
2013-07-27 18:03:00,69.2,46.3,30.15,NNE,23,8.0,15.9,44,0.00,,,0.00,WUHU216HW,2013-07-27 23:03:00,
2013-07-27 18:08:00,69.8,46.2,30.14,North,0,9.3,12.5,43,0.00,,,0.00,WUHU216HW,2013-07-27 23:08:00,
2013-07-27 18:13:00,70.8,47.1,30.14,NNE,23,4.8,9.5,43,0.00,,,0.00,WUHU216HW,2013-07-27 23:13:00,
2013-07-27 18:18:00,71.4,47.6,30.14,North,0,13.4,13.4,43,0.00,,,0.00,WUHU216HW,2013-07-27 23:18:00,
2013-07-27 18:23:00,71.4,47.6,30.14,North,0,11.4,13.6,43,0.00,,,0.00,WUHU216HW,2013-07-27 23:23:00,
2013-07-27 18:28:00,70.5,46.2,30.14,NNW,338,17.3,17.3,42,0.00,,,0.00,WUHU216HW,2013-07-27 23:28:00,
2013-07-27 18:33:00,70.5,46.8,30.14,North,0,7.8,17.3,43,0.00,,,0.00,WUHU216HW,2013-07-27 23:33:00,
2013-07-27 18:38:00,70.5,46.8,30.14,NNE,23,5.3,17.3,43,0.00,,,0.00,WUHU216HW,2013-07-27 23:38:00,
2013-07-27 18:43:00,70.5,47.4,30.14,NNE,23,5.3,14.3,44,0.00,,,0.00,WUHU216HW,2013-07-27 23:43:00,
2013-07-27 18:48:00,70.7,47.6,30.14,North,10,13.1,14.5,44,0.00,,,0.00,WUHU216HW,2013-07-27 23:48:00,
2013-07-27 18:53:00,71.0,47.9,30.14,ENE,68,0.0,14.5,44,0.00,,,0.00,WUHU216HW,2013-07-27 23:53:00,
2013-07-27 18:58:00,70.8,47.1,30.14,NNE,23,13.6,16.8,43,0.00,,,0.00,WUHU216HW,2013-07-27 23:58:00,
2013-07-27 19:03:00,69.9,46.3,30.14,NNE,23,12.0,16.8,43,0.00,,,0.00,WUHU216HW,2013-07-28 00:03:00,
2013-07-27 19:08:00,69.6,46.6,30.13,North,0,8.9,13.6,44,0.00,,,0.00,WUHU216HW,2013-07-28 00:08:00,
2013-07-27 19:13:00,69.4,46.6,30.13,North,0,12.8,16.1,44,0.00,,,0.00,WUHU216HW,2013-07-28 00:13:00,
2013-07-27 19:18:00,69.6,47.2,30.14,North,0,12.5,16.1,45,0.00,,,0.00,WUHU216HW,2013-07-28 00:18:00,
2013-07-27 19:23:00,70.1,47.7,30.14,North,0,6.9,15.0,45,0.00,,,0.00,WUHU216HW,2013-07-28 00:23:00,
2013-07-27 19:28:00,69.9,47.7,30.14,NNE,14,6.8,10.0,45,0.00,,,0.00,WUHU216HW,2013-07-28 00:28:00,
2013-07-27 19:33:00,69.6,46.6,30.13,NNE,23,12.1,12.8,44,0.00,,,0.00,WUHU216HW,2013-07-28 00:33:00,
2013-07-27 19:38:00,69.6,47.2,30.14,NNE,23,2.1,12.8,45,0.00,,,0.00,WUHU216HW,2013-07-28 00:38:00,
2013-07-27 19:43:00,69.8,46.7,30.14,NNE,12,5.6,11.4,44,0.00,,,0.00,WUHU216HW,2013-07-28 00:43:00,
2013-07-27 19:48:00,69.6,47.2,30.14,NNE,23,8.4,8.4,45,0.00,,,0.00,WUHU216HW,2013-07-28 00:48:00,
2013-07-27 19:53:00,69.6,47.8,30.14,NNE,23,1.9,8.4,46,0.00,,,0.00,WUHU216HW,2013-07-28 00:53:00,
2013-07-27 19:58:00,70.5,48.0,30.14,NNE,23,6.1,8.4,45,0.00,,,0.00,WUHU216HW,2013-07-28 00:58:00,
2013-07-27 20:04:00,70.5,48.0,30.14,NNE,23,0.0,6.1,45,0.00,,,0.00,WUHU216HW,2013-07-28 01:04:00,
2013-07-27 20:09:00,70.3,48.4,30.14,North,0,0.0,6.1,46,0.00,,,0.00,WUHU216HW,2013-07-28 01:09:00,
2013-07-27 20:14:00,69.6,48.4,30.14,North,0,3.0,3.0,47,0.00,,,0.00,WUHU216HW,2013-07-28 01:14:00,
2013-07-27 20:19:00,69.0,47.9,30.14,North,0,2.5,3.0,47,0.00,,,0.00,WUHU216HW,2013-07-28 01:19:00,
2013-07-27 20:24:00,68.3,47.8,30.14,North,0,3.3,3.3,48,0.00,,,0.00,WUHU216HW,2013-07-28 01:24:00,
2013-07-27 20:29:00,67.2,48.0,30.14,North,0,2.8,3.3,50,0.00,,,0.00,WUHU216HW,2013-07-28 01:29:00,
2013-07-27 20:34:00,66.7,47.6,30.15,North,0,0.0,2.8,50,0.00,,,0.00,WUHU216HW,2013-07-28 01:34:00,
2013-07-27 20:39:00,66.0,47.4,30.15,North,0,0.0,0.0,51,0.00,,,0.00,WUHU216HW,2013-07-28 01:39:00,
2013-07-27 20:44:00,64.9,46.8,30.14,North,0,0.0,0.0,52,0.00,,,0.00,WUHU216HW,2013-07-28 01:44:00,
2013-07-27 20:49:00,64.0,46.4,30.14,North,0,0.0,0.0,53,0.00,,,0.00,WUHU216HW,2013-07-28 01:49:00,
2013-07-27 20:54:00,62.7,46.2,30.14,North,0,0.0,0.0,55,0.00,,,0.00,WUHU216HW,2013-07-28 01:54:00,
2013-07-27 20:59:00,60.6,45.7,30.15,North,0,0.0,0.0,58,0.00,,,0.00,WUHU216HW,2013-07-28 01:59:00,
2013-07-27 21:04:00,58.8,44.9,30.15,NNW,338,0.0,0.0,60,0.00,,,0.00,WUHU216HW,2013-07-28 02:04:00,
2013-07-27 21:09:00,57.3,44.4,30.15,NNW,338,0.0,0.0,62,0.00,,,0.00,WUHU216HW,2013-07-28 02:09:00,
2013-07-27 21:14:00,55.7,44.1,30.15,NNW,338,0.0,0.0,65,0.00,,,0.00,WUHU216HW,2013-07-28 02:14:00,
2013-07-27 21:19:00,55.0,43.8,30.14,NNW,338,0.0,0.0,66,0.00,,,0.00,WUHU216HW,2013-07-28 02:19:00,
2013-07-27 21:24:00,54.1,43.7,30.14,North,0,0.0,0.0,68,0.00,,,0.00,WUHU216HW,2013-07-28 02:24:00,
2013-07-27 21:29:00,53.7,43.8,30.15,North,0,0.0,0.0,69,0.00,,,0.00,WUHU216HW,2013-07-28 02:29:00,
2013-07-27 21:34:00,53.2,44.0,30.15,North,0,0.0,0.0,71,0.00,,,0.00,WUHU216HW,2013-07-28 02:34:00,
2013-07-27 21:39:00,52.8,43.7,30.15,North,0,0.0,0.0,71,0.00,,,0.00,WUHU216HW,2013-07-28 02:39:00,
2013-07-27 21:44:00,52.5,43.7,30.15,North,0,0.0,0.0,72,0.00,,,0.00,WUHU216HW,2013-07-28 02:44:00,
2013-07-27 21:49:00,52.3,43.9,30.15,NNW,338,0.0,0.0,73,0.00,,,0.00,WUHU216HW,2013-07-28 02:49:00,
2013-07-27 21:54:00,52.1,43.7,30.15,NNW,338,0.0,0.0,73,0.00,,,0.00,WUHU216HW,2013-07-28 02:54:00,
2013-07-27 21:59:00,51.8,43.8,30.15,NNW,338,0.0,0.0,74,0.00,,,0.00,WUHU216HW,2013-07-28 02:59:00,
2013-07-27 22:04:00,51.6,43.2,30.15,NNW,338,0.0,0.0,73,0.00,,,0.00,WUHU216HW,2013-07-28 03:04:00,
2013-07-27 22:09:00,51.6,43.2,30.15,NNW,338,0.0,0.0,73,0.00,,,0.00,WUHU216HW,2013-07-28 03:09:00,
2013-07-27 22:14:00,51.4,43.4,30.16,NW,315,0.0,0.0,74,0.00,,,0.00,WUHU216HW,2013-07-28 03:14:00,
2013-07-27 22:19:00,51.4,43.7,30.15,NW,315,0.0,0.0,75,0.00,,,0.00,WUHU216HW,2013-07-28 03:19:00,
2013-07-27 22:24:00,51.2,43.6,30.16,NW,315,0.0,0.0,75,0.00,,,0.00,WUHU216HW,2013-07-28 03:24:00,
2013-07-27 22:29:00,51.0,43.4,30.16,NW,315,0.0,0.0,75,0.00,,,0.00,WUHU216HW,2013-07-28 03:29:00,
2013-07-27 22:34:00,51.0,43.0,30.16,NNW,338,0.0,0.0,74,0.00,,,0.00,WUHU216HW,2013-07-28 03:34:00,
2013-07-27 22:39:00,50.9,42.9,30.16,NNW,338,0.0,0.0,74,0.00,,,0.00,WUHU216HW,2013-07-28 03:39:00,
2013-07-27 22:44:00,50.7,42.7,30.16,NNW,338,0.0,0.0,74,0.00,,,0.00,WUHU216HW,2013-07-28 03:44:00,
2013-07-27 22:49:00,50.7,42.7,30.16,NNW,338,0.0,0.0,74,0.00,,,0.00,WUHU216HW,2013-07-28 03:49:00,
2013-07-27 22:54:00,50.3,42.3,30.16,NNW,338,0.0,0.0,74,0.00,,,0.00,WUHU216HW,2013-07-28 03:54:00,
2013-07-27 22:59:00,50.1,42.1,30.16,NNW,338,0.0,0.0,74,0.00,,,0.00,WUHU216HW,2013-07-28 03:59:00,
2013-07-27 23:01:00,50.1,42.1,30.16,NNW,338,0.0,0.0,74,0.00,,,0.00,WUHU216HW,2013-07-28 04:01:00,
2013-07-27 23:02:00,50.1,42.1,30.16,NNW,338,0.0,0.0,74,0.00,,,0.00,WUHU216HW,2013-07-28 04:02:00,
2013-07-27 23:07:00,49.8,42.1,30.16,NNW,338,0.0,0.0,75,0.00,,,0.00,WUHU216HW,2013-07-28 04:07:00,
2013-07-27 23:12:00,49.8,42.1,30.15,NNW,338,0.0,0.0,75,0.00,,,0.00,WUHU216HW,2013-07-28 04:12:00,
2013-07-27 23:17:00,49.8,42.5,30.16,NNW,338,0.0,0.0,76,0.00,,,0.00,WUHU216HW,2013-07-28 04:17:00,
2013-07-27 23:22:00,49.8,42.5,30.15,NNW,338,0.0,0.0,76,0.00,,,0.00,WUHU216HW,2013-07-28 04:22:00,
2013-07-27 23:27:00,49.8,42.5,30.16,NNW,338,0.0,0.0,76,0.00,,,0.00,WUHU216HW,2013-07-28 04:27:00,
2013-07-27 23:32:00,49.6,42.6,30.16,NNW,338,0.0,0.0,77,0.00,,,0.00,WUHU216HW,2013-07-28 04:32:00,
2013-07-27 23:37:00,49.6,42.6,30.16,NNW,338,0.0,0.0,77,0.00,,,0.00,WUHU216HW,2013-07-28 04:37:00,
2013-07-27 23:42:00,49.6,42.6,30.16,NNW,338,0.0,0.0,77,0.00,,,0.00,WUHU216HW,2013-07-28 04:42:00,
2013-07-27 23:47:00,49.8,42.8,30.16,NNW,338,0.0,0.0,77,0.00,,,0.00,WUHU216HW,2013-07-28 04:47:00,
2013-07-27 23:52:00,49.8,42.8,30.16,NNW,338,0.0,0.0,77,0.00,,,0.00,WUHU216HW,2013-07-28 04:52:00,
2013-07-27 23:57:00,49.8,42.8,30.16,NNW,338,0.0,0.0,77,0.00,,,0.00,WUHU216HW,2013-07-28 04:57:00,